createdAt,value
2018-10-05T00:00:11.704Z,8.06
2018-10-05T00:02:40.215Z,8.05
2018-10-05T00:05:08.873Z,8.09
2018-10-05T00:07:37.468Z,8.05
2018-10-05T00:10:06.126Z,7.99
2018-10-05T00:12:34.815Z,8.02
2018-10-05T00:15:03.428Z,7.94
2018-10-05T00:17:31.992Z,7.85
2018-10-05T00:20:00.806Z,7.85
2018-10-05T00:22:29.369Z,7.90
2018-10-05T00:24:57.933Z,7.77
2018-10-05T00:27:26.473Z,7.76
2018-10-05T00:29:55.108Z,7.76
2018-10-05T00:32:23.689Z,7.73
2018-10-05T00:34:52.232Z,7.80
2018-10-05T00:37:20.756Z,7.71
2018-10-05T00:39:49.320Z,7.75
2018-10-05T00:42:17.849Z,7.66
2018-10-05T00:44:46.400Z,7.58
2018-10-05T00:47:14.972Z,7.50
2018-10-05T00:49:43.612Z,7.47
2018-10-05T00:52:12.160Z,7.49
2018-10-05T00:54:40.977Z,7.46
2018-10-05T00:57:09.503Z,7.47
2018-10-05T00:59:38.083Z,7.47
2018-10-05T01:02:06.944Z,7.47
2018-10-05T01:04:35.492Z,7.50
2018-10-05T01:07:04.112Z,7.44
2018-10-05T01:09:32.744Z,7.44
2018-10-05T01:12:01.266Z,7.47
2018-10-05T01:14:29.853Z,7.39
2018-10-05T01:16:58.636Z,7.39
2018-10-05T01:19:27.188Z,7.43
2018-10-05T01:21:55.721Z,7.38
2018-10-05T01:24:24.299Z,7.39
2018-10-05T01:26:52.959Z,7.30
2018-10-05T01:29:21.497Z,7.24
2018-10-05T01:31:50.076Z,7.18
2018-10-05T01:34:18.612Z,7.14
2018-10-05T01:36:49.158Z,7.09
2018-10-05T01:39:17.691Z,7.11
2018-10-05T01:41:46.268Z,6.97
2018-10-05T01:44:14.794Z,6.89
2018-10-05T01:46:43.371Z,6.86
2018-10-05T01:49:11.915Z,6.91
2018-10-05T01:51:40.461Z,6.83
2018-10-05T01:54:08.987Z,6.82
2018-10-05T01:56:37.544Z,6.81
2018-10-05T01:59:06.197Z,6.87
2018-10-05T02:01:34.746Z,6.88
2018-10-05T02:04:03.431Z,6.80
2018-10-05T02:06:32.032Z,6.86
2018-10-05T02:09:00.598Z,6.88
2018-10-05T02:11:29.116Z,6.88
2018-10-05T02:13:57.692Z,6.82
2018-10-05T02:16:26.203Z,6.81
2018-10-05T02:18:54.840Z,6.81
2018-10-05T02:21:23.378Z,6.71
2018-10-05T02:23:51.956Z,6.78
2018-10-05T02:26:20.699Z,6.73
2018-10-05T02:28:49.460Z,6.78
2018-10-05T02:31:18.123Z,6.69
2018-10-05T02:33:46.702Z,6.65
2018-10-05T02:36:15.636Z,6.61
2018-10-05T02:38:44.612Z,6.66
2018-10-05T02:41:14.280Z,6.60
2018-10-05T02:43:42.812Z,6.60
2018-10-05T02:46:11.443Z,6.56
2018-10-05T02:48:40.117Z,6.47
2018-10-05T02:51:08.813Z,6.41
2018-10-05T02:53:37.496Z,6.44
2018-10-05T02:56:06.180Z,6.39
2018-10-05T02:58:34.718Z,6.43
2018-10-05T03:01:14.248Z,6.36
2018-10-05T03:03:42.777Z,6.35
2018-10-05T03:06:11.313Z,6.38
2018-10-05T03:08:39.852Z,6.36
2018-10-05T03:11:08.383Z,6.38
2018-10-05T03:13:36.924Z,6.42
2018-10-05T03:16:05.479Z,6.45
2018-10-05T03:18:34.028Z,6.50
2018-10-05T03:21:02.897Z,6.48
2018-10-05T03:23:31.452Z,6.52
2018-10-05T03:26:00.026Z,6.48
2018-10-05T03:28:28.580Z,6.48
2018-10-05T03:30:57.107Z,6.55
2018-10-05T03:33:25.665Z,6.48
2018-10-05T03:35:54.217Z,6.54
2018-10-05T03:38:22.739Z,6.47
2018-10-05T03:40:51.304Z,6.50
2018-10-05T03:43:19.808Z,6.42
2018-10-05T03:45:48.324Z,6.39
2018-10-05T03:48:16.961Z,6.33
2018-10-05T03:50:45.501Z,6.17
2018-10-05T03:53:14.057Z,6.19
2018-10-05T03:55:42.606Z,6.13
2018-10-05T03:58:11.164Z,6.13
2018-10-05T04:00:39.700Z,6.12
2018-10-05T04:03:08.295Z,6.16
2018-10-05T04:05:36.836Z,6.18
2018-10-05T04:08:05.507Z,6.24
2018-10-05T04:10:34.043Z,6.28
2018-10-05T04:13:02.642Z,6.25
2018-10-05T04:15:31.325Z,6.21
2018-10-05T04:17:59.911Z,5.94
2018-10-05T04:20:28.449Z,5.97
2018-10-05T04:22:56.991Z,5.97
2018-10-05T04:25:25.563Z,5.91
2018-10-05T04:27:54.111Z,5.98
2018-10-05T04:30:22.717Z,6.01
2018-10-05T04:32:51.283Z,5.95
2018-10-05T04:35:19.844Z,6.01
2018-10-05T04:37:48.387Z,5.98
2018-10-05T04:40:17.579Z,5.99
2018-10-05T04:42:46.145Z,5.99
2018-10-05T04:45:14.703Z,5.98
2018-10-05T04:47:43.216Z,5.84
2018-10-05T04:50:11.761Z,5.88
2018-10-05T04:52:40.421Z,5.90
2018-10-05T04:55:08.980Z,5.86
2018-10-05T04:57:37.558Z,5.84
2018-10-05T05:00:06.248Z,5.87
2018-10-05T05:02:35.676Z,5.87
2018-10-05T05:05:04.240Z,5.90
2018-10-05T05:07:32.830Z,5.86
2018-10-05T05:10:01.439Z,5.90
2018-10-05T05:12:29.986Z,5.80
2018-10-05T05:14:58.546Z,5.73
2018-10-05T05:17:27.165Z,5.74
2018-10-05T05:19:55.712Z,5.69
2018-10-05T05:22:24.223Z,5.75
2018-10-05T05:24:52.795Z,5.78
2018-10-05T05:27:21.315Z,5.88
2018-10-05T05:29:49.852Z,5.88
2018-10-05T05:32:18.596Z,5.94
2018-10-05T05:34:47.148Z,5.99
2018-10-05T05:37:15.733Z,6.04
2018-10-05T05:39:44.294Z,6.08
2018-10-05T05:42:12.828Z,6.07
2018-10-05T05:44:41.367Z,6.08
2018-10-05T05:47:10.132Z,5.99
2018-10-05T05:49:38.808Z,5.92
2018-10-05T05:52:07.552Z,5.96
2018-10-05T05:54:36.138Z,5.99
2018-10-05T05:57:04.659Z,6.09
2018-10-05T05:59:33.239Z,6.15
2018-10-05T06:02:01.915Z,6.25
2018-10-05T06:04:30.464Z,6.28
2018-10-05T06:06:59.057Z,6.38
2018-10-05T06:09:27.657Z,6.42
2018-10-05T06:11:56.220Z,6.49
2018-10-05T06:14:24.773Z,6.49
2018-10-05T06:16:53.310Z,6.37
2018-10-05T06:19:21.836Z,6.43
2018-10-05T06:21:50.513Z,6.42
2018-10-05T06:24:18.992Z,6.40
2018-10-05T06:26:52.599Z,6.45
2018-10-05T06:29:21.149Z,6.49
2018-10-05T06:31:49.746Z,6.52
2018-10-05T06:34:18.274Z,6.59
2018-10-05T06:36:46.840Z,6.68
2018-10-05T06:39:15.451Z,6.94
2018-10-05T06:41:43.913Z,7.21
2018-10-05T06:44:12.465Z,7.46
2018-10-05T06:46:41.020Z,7.30
2018-10-05T06:49:09.592Z,7.22
2018-10-05T06:51:38.150Z,7.20
2018-10-05T06:54:06.740Z,7.30
2018-10-05T06:56:35.276Z,7.40
2018-10-05T06:59:03.808Z,7.67
2018-10-05T07:01:32.442Z,7.72
2018-10-05T07:04:00.903Z,7.92
2018-10-05T07:06:29.479Z,8.27
2018-10-05T07:08:58.000Z,8.18
2018-10-05T07:11:26.626Z,8.27
2018-10-05T07:13:55.216Z,8.37
2018-10-05T07:16:23.793Z,8.43
2018-10-05T07:21:55.016Z,8.50
2018-10-05T07:24:23.563Z,8.44
2018-10-05T07:26:52.099Z,8.37
2018-10-05T07:29:20.668Z,8.67
2018-10-05T07:31:49.276Z,8.83
2018-10-05T07:34:18.047Z,8.87
2018-10-05T07:36:46.623Z,9.05
2018-10-05T07:39:15.160Z,9.26
2018-10-05T07:41:43.744Z,9.39
2018-10-05T07:44:12.277Z,9.60
2018-10-05T07:46:40.837Z,9.70
2018-10-05T07:49:09.396Z,9.88
2018-10-05T07:51:37.985Z,9.82
2018-10-05T07:54:06.573Z,10.03
2018-10-05T07:56:35.115Z,10.19
2018-10-05T07:59:03.674Z,10.26
2018-10-05T08:01:32.229Z,10.52
2018-10-05T08:04:00.837Z,10.67
2018-10-05T08:06:29.403Z,10.76
2018-10-05T08:08:57.945Z,10.93
2018-10-05T08:11:26.484Z,10.83
2018-10-05T08:13:55.063Z,11.08
2018-10-05T08:16:23.601Z,11.14
2018-10-05T08:18:52.270Z,11.23
2018-10-05T08:21:20.896Z,11.35
2018-10-05T08:23:49.761Z,11.33
2018-10-05T08:26:18.335Z,11.73
2018-10-05T08:28:47.196Z,12.04
2018-10-05T08:31:15.764Z,12.23
2018-10-05T08:33:44.388Z,12.39
2018-10-05T08:36:12.903Z,12.56
2018-10-05T08:38:41.544Z,12.79
2018-10-05T08:41:10.093Z,12.82
2018-10-05T08:43:38.776Z,12.95
2018-10-05T08:46:07.400Z,13.16
2018-10-05T08:48:35.946Z,13.36
2018-10-05T08:51:04.503Z,13.44
2018-10-05T08:53:33.060Z,13.49
2018-10-05T08:56:01.650Z,13.63
2018-10-05T08:58:30.268Z,13.56
2018-10-05T09:00:58.801Z,13.94
2018-10-05T09:03:27.365Z,14.09
2018-10-05T09:05:56.084Z,14.21
2018-10-05T09:08:24.489Z,14.25
2018-10-05T09:10:53.056Z,14.40
2018-10-05T09:13:21.585Z,14.34
2018-10-05T09:15:50.107Z,14.69
2018-10-05T09:18:18.867Z,14.59
2018-10-05T09:20:47.388Z,14.91
2018-10-05T09:23:15.929Z,15.01
2018-10-05T09:25:44.446Z,15.32
2018-10-05T09:28:12.993Z,15.43
2018-10-05T09:30:41.524Z,16.02
2018-10-05T09:33:10.076Z,16.36
2018-10-05T09:35:38.684Z,16.90
2018-10-05T09:38:07.234Z,17.26
2018-10-05T09:40:35.756Z,17.81
2018-10-05T09:43:04.305Z,18.30
2018-10-05T09:45:32.840Z,18.56
2018-10-05T09:48:01.437Z,18.92
2018-10-05T09:50:29.955Z,18.95
2018-10-05T09:52:58.527Z,18.66
2018-10-05T09:55:27.101Z,18.53
2018-10-05T09:57:55.649Z,18.73
2018-10-05T10:00:40.562Z,19.54
2018-10-05T10:03:14.203Z,19.57
2018-10-05T10:05:42.743Z,19.89
2018-10-05T10:08:11.437Z,20.04
2018-10-05T10:10:39.979Z,20.83
2018-10-05T10:13:08.540Z,20.78
2018-10-05T10:15:37.120Z,20.90
2018-10-05T10:18:05.944Z,20.48
2018-10-05T10:20:34.524Z,20.37
2018-10-05T10:23:03.052Z,20.75
2018-10-05T10:25:31.657Z,20.47
2018-10-05T10:28:00.251Z,20.33
2018-10-05T10:30:28.742Z,19.61
2018-10-05T10:32:57.277Z,19.12
2018-10-05T10:35:25.823Z,18.96
2018-10-05T10:37:54.490Z,19.03
2018-10-05T10:40:23.015Z,18.88
2018-10-05T10:42:51.641Z,18.77
2018-10-05T10:45:20.175Z,18.70
2018-10-05T10:47:48.763Z,18.83
2018-10-05T10:50:17.292Z,18.45
2018-10-05T10:52:45.815Z,18.67
2018-10-05T10:55:14.363Z,18.73
2018-10-05T10:57:42.900Z,18.72
2018-10-05T11:00:11.525Z,19.04
2018-10-05T11:02:40.072Z,19.16
2018-10-05T11:05:08.623Z,19.07
2018-10-05T11:10:28.192Z,19.03
2018-10-05T11:12:56.719Z,18.98
2018-10-05T11:15:25.325Z,19.09
2018-10-05T11:17:57.880Z,19.33
2018-10-05T11:20:26.536Z,19.02
2018-10-05T11:22:55.068Z,19.35
2018-10-05T11:25:23.610Z,19.40
2018-10-05T11:27:52.227Z,19.42
2018-10-05T11:30:20.779Z,19.45
2018-10-05T11:32:49.337Z,19.23
2018-10-05T11:35:17.959Z,19.44
2018-10-05T11:37:46.484Z,19.63
2018-10-05T11:40:15.084Z,19.67
2018-10-05T11:42:43.655Z,19.55
2018-10-05T11:45:12.209Z,19.59
2018-10-05T11:47:40.736Z,19.16
2018-10-05T11:50:09.339Z,19.27
2018-10-05T11:52:37.859Z,19.22
2018-10-05T11:55:06.434Z,19.27
2018-10-05T11:57:34.960Z,19.45
2018-10-05T12:00:06.910Z,19.45
2018-10-05T12:02:35.532Z,19.35
2018-10-05T12:05:04.147Z,19.25
2018-10-05T12:07:32.696Z,19.21
2018-10-05T12:10:02.008Z,19.01
2018-10-05T12:12:30.567Z,18.87
2018-10-05T12:14:59.084Z,19.02
2018-10-05T12:17:27.854Z,19.27
2018-10-05T12:19:56.440Z,19.15
2018-10-05T12:22:25.027Z,19.09
2018-10-05T12:24:53.571Z,19.24
2018-10-05T12:27:22.125Z,19.37
2018-10-05T12:29:50.714Z,19.49
2018-10-05T12:32:19.232Z,19.69
2018-10-05T12:34:47.788Z,19.73
2018-10-05T12:37:16.466Z,19.71
2018-10-05T12:39:44.920Z,19.67
2018-10-05T12:42:13.464Z,19.75
2018-10-05T12:44:42.159Z,19.77
2018-10-05T12:47:10.713Z,19.78
2018-10-05T12:49:39.280Z,19.65
2018-10-05T12:52:07.861Z,19.49
2018-10-05T12:54:36.443Z,19.28
2018-10-05T12:57:05.051Z,19.43
2018-10-05T12:59:33.596Z,19.57
2018-10-05T13:02:02.142Z,19.59
2018-10-05T13:04:30.665Z,19.66
2018-10-05T13:06:59.224Z,19.72
2018-10-05T13:09:27.759Z,19.79
2018-10-05T13:11:56.308Z,20.04
2018-10-05T13:14:24.853Z,20.21
2018-10-05T13:16:53.414Z,20.19
2018-10-05T13:19:21.968Z,20.29
2018-10-05T13:21:50.531Z,20.28
2018-10-05T13:24:19.059Z,20.41
2018-10-05T13:26:47.608Z,20.44
2018-10-05T13:29:16.156Z,20.60
2018-10-05T13:31:44.700Z,20.72
2018-10-05T13:34:13.339Z,20.69
2018-10-05T13:36:41.800Z,20.41
2018-10-05T13:39:11.232Z,20.43
2018-10-05T13:41:40.266Z,20.58
2018-10-05T13:44:08.806Z,20.79
2018-10-05T13:46:37.363Z,20.78
2018-10-05T13:49:06.720Z,20.82
2018-10-05T13:51:36.568Z,20.61
2018-10-05T13:54:05.393Z,20.56
2018-10-05T13:56:34.356Z,20.68
2018-10-05T13:59:02.925Z,20.76
2018-10-05T14:01:31.472Z,20.94
2018-10-05T14:04:00.045Z,20.89
2018-10-05T14:06:28.614Z,20.95
2018-10-05T14:08:57.930Z,21.01
2018-10-05T14:11:26.546Z,21.10
2018-10-05T14:13:55.124Z,21.08
2018-10-05T14:19:13.799Z,21.04
2018-10-05T14:21:42.340Z,21.15
2018-10-05T14:24:10.948Z,21.18
2018-10-05T14:26:39.500Z,21.30
2018-10-05T14:29:08.077Z,21.39
2018-10-05T14:31:36.625Z,21.30
2018-10-05T14:34:05.183Z,21.26
2018-10-05T14:36:33.735Z,21.23
2018-10-05T14:39:02.352Z,21.27
2018-10-05T14:41:30.997Z,21.21
2018-10-05T14:43:59.504Z,21.32
2018-10-05T14:46:28.061Z,21.25
2018-10-05T14:48:56.665Z,21.14
2018-10-05T14:51:25.254Z,21.10
2018-10-05T14:53:53.799Z,20.96
2018-10-05T14:56:22.363Z,20.80
2018-10-05T14:58:50.994Z,20.79
2018-10-05T15:01:19.574Z,20.86
2018-10-05T15:03:48.151Z,20.93
2018-10-05T15:06:16.703Z,20.92
2018-10-05T15:08:45.242Z,20.93
2018-10-05T15:11:13.788Z,20.94
2018-10-05T15:13:42.429Z,20.90
2018-10-05T15:16:11.113Z,20.93
2018-10-05T15:18:39.660Z,20.87
2018-10-05T15:21:08.308Z,20.67
2018-10-05T15:23:36.987Z,20.72
2018-10-05T15:26:05.615Z,20.76
2018-10-05T15:28:34.187Z,20.68
2018-10-05T15:31:02.819Z,20.60
2018-10-05T15:33:31.389Z,20.55
2018-10-05T15:35:59.930Z,20.54
2018-10-05T15:38:28.495Z,20.53
2018-10-05T15:40:57.084Z,20.46
2018-10-05T15:43:25.646Z,20.40
2018-10-05T15:46:08.347Z,20.33
2018-10-05T15:51:27.088Z,20.12
2018-10-05T15:53:55.636Z,19.88
2018-10-05T15:56:24.178Z,19.69
2018-10-05T15:58:52.754Z,19.56
2018-10-05T16:01:21.278Z,19.38
2018-10-05T16:03:49.836Z,19.33
2018-10-05T16:06:18.456Z,19.22
2018-10-05T16:08:46.995Z,19.01
2018-10-05T16:11:15.567Z,18.94
2018-10-05T16:13:44.113Z,18.82
2018-10-05T16:16:12.713Z,18.71
2018-10-05T17:56:10.341Z,14.89
2018-10-05T17:58:38.871Z,14.94
2018-10-05T18:01:07.725Z,14.75
2018-10-05T18:03:37.078Z,14.81
2018-10-05T18:06:05.622Z,14.85
2018-10-05T18:08:34.216Z,14.88
2018-10-05T18:11:02.752Z,14.86
2018-10-05T18:13:31.306Z,14.84
2018-10-05T18:15:59.924Z,14.75
2018-10-05T18:18:28.508Z,14.70
2018-10-05T18:20:57.048Z,14.58
2018-10-05T18:23:25.640Z,14.55
2018-10-05T18:25:54.204Z,14.45
2018-10-05T18:28:22.732Z,14.43
2018-10-05T18:30:57.243Z,14.42
2018-10-05T18:33:25.796Z,14.36
2018-10-05T18:35:54.567Z,14.40
2018-10-05T18:38:23.136Z,14.24
2018-10-05T18:40:51.680Z,14.33
2018-10-05T18:43:20.228Z,14.35
2018-10-05T18:45:48.798Z,14.28
2018-10-05T18:48:17.343Z,14.25
2018-10-05T18:50:45.935Z,14.14
2018-10-05T18:53:14.516Z,14.09
2018-10-05T18:55:43.068Z,14.04
2018-10-05T18:58:11.632Z,14.08
2018-10-05T19:00:40.305Z,13.92
2018-10-05T19:03:08.889Z,13.89
2018-10-05T19:05:37.525Z,14.00
2018-10-05T19:08:06.467Z,13.87
2018-10-05T19:10:34.993Z,13.78
2018-10-05T19:13:03.621Z,13.75
2018-10-05T19:15:32.162Z,13.80
2018-10-05T19:18:00.691Z,13.79
2018-10-05T19:20:29.409Z,13.59
2018-10-05T19:22:58.113Z,13.52
2018-10-05T19:25:26.732Z,13.46
2018-10-05T19:27:55.289Z,13.38
2018-10-05T19:30:23.836Z,13.47
2018-10-05T19:32:52.425Z,13.45
2018-10-05T19:35:20.951Z,13.41
2018-10-05T19:37:49.819Z,13.31
2018-10-05T19:40:18.798Z,13.27
2018-10-05T19:42:47.702Z,13.26
2018-10-05T19:45:16.395Z,13.21
2018-10-05T19:47:45.215Z,13.21
2018-10-05T19:50:13.827Z,13.19
2018-10-05T19:52:42.382Z,12.92
2018-10-05T19:55:10.915Z,12.90
2018-10-05T19:57:39.477Z,12.88
2018-10-05T20:00:08.061Z,12.95
2018-10-05T20:02:37.498Z,12.81
2018-10-05T20:05:06.135Z,12.81
2018-10-05T20:07:34.695Z,12.70
2018-10-05T20:10:03.334Z,12.51
2018-10-05T20:12:31.872Z,12.65
2018-10-05T20:15:00.483Z,12.64
2018-10-05T20:17:29.020Z,12.55
2018-10-05T20:19:57.588Z,12.52
2018-10-05T20:22:26.168Z,12.52
2018-10-05T20:24:54.729Z,12.51
2018-10-05T20:27:23.268Z,12.44
2018-10-05T20:29:51.863Z,12.26
2018-10-05T20:32:20.433Z,12.31
2018-10-05T20:34:48.993Z,12.28
2018-10-05T20:37:17.614Z,12.15
2018-10-05T20:39:46.159Z,11.98
2018-10-05T20:42:14.712Z,11.94
2018-10-05T20:44:43.264Z,11.85
2018-10-05T20:47:11.864Z,11.89
2018-10-05T20:49:40.427Z,11.96
2018-10-05T20:52:08.982Z,11.90
2018-10-05T20:54:37.509Z,11.79
2018-10-05T20:57:06.116Z,11.86
2018-10-05T20:59:34.656Z,11.73
2018-10-05T21:02:03.298Z,11.64
2018-10-05T21:04:31.879Z,11.70
2018-10-05T21:07:00.427Z,11.68
2018-10-05T21:09:28.974Z,11.63
2018-10-05T21:11:57.551Z,11.73
2018-10-05T21:14:26.131Z,11.49
2018-10-05T21:16:54.671Z,11.48
2018-10-05T21:19:23.223Z,11.40
2018-10-05T21:21:51.771Z,11.39
2018-10-05T21:24:20.296Z,11.39
2018-10-05T21:26:48.844Z,11.28
2018-10-05T21:29:20.321Z,11.15
2018-10-05T21:31:48.859Z,11.12
2018-10-05T21:34:17.384Z,11.02
2018-10-05T21:36:45.978Z,10.98
2018-10-05T21:39:14.540Z,11.00
2018-10-05T21:41:43.177Z,10.93
2018-10-05T21:44:11.784Z,10.95
2018-10-05T21:46:40.677Z,10.90
2018-10-05T21:49:09.215Z,10.78
2018-10-05T21:51:37.797Z,10.70
2018-10-05T21:54:06.425Z,10.63
2018-10-05T21:56:34.971Z,10.66
2018-10-05T21:59:03.646Z,10.62
2018-10-05T22:01:32.320Z,10.52
2018-10-05T22:04:00.852Z,10.56
2018-10-05T22:06:29.396Z,10.51
2018-10-05T22:08:57.916Z,10.47
2018-10-05T22:11:26.452Z,10.43
2018-10-05T22:13:54.996Z,10.34
2018-10-05T22:16:23.515Z,10.41
